PILOTS ONLINE: 369    ATC ONLINE: 60

KNKT

Cherry Point MCAS /Cunningham Field/

Location

City Cherry Point
Country  United States
Latitude 34° 54' 3" N
Longitude 76° 52' 50" W
Elevation 29 ft
Type Medium Airport

Map

Weather

METAR
2014/10/01 13:54
KNKT 011354Z 06006KT 10SM BKN006 OVC010 22/19 A2999 RMK AO2 SLP151 T02170189 
TAF
2014/10/01 11:38
TAF 
      AMD KNKT 0111/0209 VRB06KT 9999 BKN003 QNH2991INS 
     FM011230 01007KT 9999 SCT030 SCT200 QNH2985INS 
     FM020000 VRB06KT 9999 SKC QNH2988INS 
     FM020500 VRB03KT 4800 BR BKN007 QNH2990INS T18/0110Z T26/0121Z 
      AMD 1133

Runways

05L/23R 7553 ft / 200 ft
05R/23L 8188 ft / 196 ft
14L/32R 8984 ft / 200 ft
14R/32L 8399 ft / 200 ft

Outbound flights

Callsign Flying to Pilot ATD/STD ETA Aircraft

Inbound flights

Callsign Flying from Pilot ATD ETA Aircraft